Time;durP1;ratioP1;P1;durP2;ratioP2;P2;SDS_P1;SDS_P2;PMS_P1;PMS_P2;Temp;Humidity;BMP_temperature;BMP_pressure;BME280_temperature;BME280_humidity;BME280_pressure;Samples;Min_cycle;Max_cycle;Signal;HPM_P1;HPM_P2
2023/04/16 00:00:53;;;;;;;34.13;15.73;;;7.10;99.90;;;;;;4878327;29;20049;-82
2023/04/16 00:03:20;;;;;;;37.67;16.95;;;7.20;99.90;;;;;;4895581;29;20052;-82
2023/04/16 00:05:47;;;;;;;36.85;17.27;;;7.20;99.90;;;;;;4865557;29;20045;-82
2023/04/16 00:08:13;;;;;;;37.47;16.77;;;7.20;99.90;;;;;;4865242;29;20052;-82
2023/04/16 00:10:40;;;;;;;38.20;17.38;;;7.20;99.90;;;;;;4858383;29;20084;-82
2023/04/16 00:13:07;;;;;;;39.40;16.25;;;7.10;99.90;;;;;;4877038;29;20050;-82
2023/04/16 00:15:33;;;;;;;34.00;17.50;;;7.10;99.90;;;;;;4861886;29;20065;-82
2023/04/16 00:18:00;;;;;;;37.90;16.70;;;7.10;99.90;;;;;;4861702;29;20105;-81
2023/04/16 00:20:27;;;;;;;36.10;16.83;;;7.00;99.90;;;;;;4861592;29;20068;-82
2023/04/16 00:22:53;;;;;;;36.15;15.73;;;7.00;99.90;;;;;;4876588;29;20110;-81
2023/04/16 00:25:20;;;;;;;30.80;15.27;;;6.90;99.90;;;;;;4876837;29;20081;-82
2023/04/16 00:27:47;;;;;;;33.05;15.95;;;6.90;99.90;;;;;;4876654;29;20050;-82
2023/04/16 00:30:13;;;;;;;31.50;15.82;;;6.80;99.90;;;;;;4876868;29;20405;-82
2023/04/16 00:32:40;;;;;;;41.58;16.60;;;6.80;99.90;;;;;;4860508;29;20061;-81
2023/04/16 00:35:07;;;;;;;39.92;17.40;;;6.80;99.90;;;;;;4846763;29;20034;-82
2023/04/16 00:37:34;;;;;;;28.27;15.70;;;6.80;99.90;;;;;;4847053;29;20098;-82
2023/04/16 00:40:00;;;;;;;31.48;15.77;;;6.80;99.90;;;;;;4846675;29;20050;-82
2023/04/16 00:42:27;;;;;;;33.42;16.00;;;6.80;99.90;;;;;;4870495;29;20463;-82
2023/04/16 00:44:54;;;;;;;40.08;16.13;;;6.80;99.90;;;;;;4865265;29;20150;-82
2023/04/16 00:47:21;;;;;;;31.98;15.98;;;6.90;99.90;;;;;;4865124;29;20045;-82
2023/04/16 00:49:48;;;;;;;47.22;16.17;;;6.90;99.90;;;;;;4895984;29;20056;-82
2023/04/16 00:52:14;;;;;;;39.33;16.13;;;6.90;99.90;;;;;;4864820;29;20041;-82
2023/04/16 00:54:41;;;;;;;35.35;16.60;;;6.90;99.90;;;;;;4895650;29;20505;-82
2023/04/16 00:57:09;;;;;;;38.13;16.13;;;6.90;99.90;;;;;;4850012;29;20046;-82
2023/04/16 00:59:36;;;;;;;32.90;14.80;;;6.80;99.90;;;;;;4849934;29;20105;-82
2023/04/16 01:02:03;;;;;;;35.45;15.25;;;6.80;99.90;;;;;;4879910;29;20459;-82
2023/04/16 01:04:30;;;;;;;29.50;13.82;;;6.80;99.90;;;;;;4880018;29;20528;-82
2023/04/16 01:06:57;;;;;;;34.95;15.43;;;6.80;99.90;;;;;;4880045;29;20060;-82
2023/04/16 01:09:24;;;;;;;36.03;15.13;;;6.80;99.90;;;;;;4861459;29;20042;-83
2023/04/16 01:11:50;;;;;;;32.95;15.52;;;6.70;99.90;;;;;;4846699;29;20045;-82
2023/04/16 01:14:17;;;;;;;40.67;16.58;;;6.70;99.90;;;;;;4845667;29;20069;-82
2023/04/16 01:16:44;;;;;;;42.78;16.58;;;6.70;99.90;;;;;;4861304;29;20046;-82
2023/04/16 01:19:11;;;;;;;41.35;16.08;;;6.80;99.90;;;;;;4861294;29;20567;-82
2023/04/16 01:21:37;;;;;;;50.13;15.55;;;6.70;99.90;;;;;;4861359;29;20045;-82
2023/04/16 01:24:04;;;;;;;37.15;18.23;;;6.70;99.90;;;;;;4845983;29;20045;-81
2023/04/16 01:26:31;;;;;;;41.70;17.77;;;6.60;99.90;;;;;;4876587;29;20053;-82
2023/04/16 01:28:58;;;;;;;44.65;17.95;;;6.80;99.90;;;;;;4876458;29;20507;-82
2023/04/16 01:31:25;;;;;;;45.78;18.92;;;6.70;99.90;;;;;;4876347;29;20085;-82
2023/04/16 01:33:53;;;;;;;45.03;19.23;;;6.70;99.90;;;;;;4861409;29;20503;-82
2023/04/16 01:36:20;;;;;;;58.20;21.23;;;6.80;99.90;;;;;;4866683;29;20037;-82
2023/04/16 01:38:47;;;;;;;59.10;21.42;;;6.80;99.90;;;;;;4864089;29;20038;-82
2023/04/16 01:41:13;;;;;;;58.38;20.67;;;6.80;99.90;;;;;;4879359;29;20041;-82
2023/04/16 01:43:41;;;;;;;81.38;22.17;;;7.00;99.90;;;;;;4863801;29;20045;-82
2023/04/16 01:46:29;;;;;;;69.53;21.52;;;7.00;99.90;;;;;;4876241;29;20075;-81
2023/04/16 01:48:57;;;;;;;55.92;22.08;;;7.10;99.90;;;;;;4860920;29;20047;-82
2023/04/16 01:51:24;;;;;;;54.25;22.42;;;7.00;99.90;;;;;;4860820;29;20065;-81
2023/04/16 01:53:50;;;;;;;61.95;22.33;;;7.10;99.90;;;;;;4845387;29;20062;-82
2023/04/16 01:56:17;;;;;;;55.00;21.48;;;7.10;99.90;;;;;;4845956;29;20171;-82
2023/04/16 01:58:45;;;;;;;69.97;22.95;;;7.10;99.90;;;;;;4860953;29;20119;-82
2023/04/16 02:01:12;;;;;;;51.85;20.98;;;7.10;99.90;;;;;;4830666;29;20053;-81
2023/04/16 02:03:39;;;;;;;57.35;22.48;;;7.20;99.90;;;;;;4860358;29;20114;-82
2023/04/16 02:06:06;;;;;;;57.03;22.92;;;7.10;99.90;;;;;;4875924;29;20050;-83
2023/04/16 02:08:33;;;;;;;55.83;21.73;;;7.10;99.90;;;;;;4860407;29;20049;-82
2023/04/16 02:10:59;;;;;;;56.17;24.23;;;7.10;99.90;;;;;;4830234;29;20496;-82
2023/04/16 02:13:26;;;;;;;57.33;23.38;;;7.20;99.90;;;;;;4844997;29;20042;-82
2023/04/16 02:15:53;;;;;;;56.28;22.73;;;7.20;99.90;;;;;;4845111;29;20057;-82
2023/04/16 02:18:20;;;;;;;54.65;22.30;;;7.20;99.90;;;;;;4844719;29;20042;-82
2023/04/16 02:20:48;;;;;;;54.60;23.65;;;7.20;99.90;;;;;;4863485;29;20137;-82
2023/04/16 02:23:15;;;;;;;55.35;22.10;;;7.20;99.90;;;;;;4879107;29;20049;-82
2023/04/16 02:25:43;;;;;;;53.42;22.15;;;7.20;99.90;;;;;;4878580;29;20053;-82
2023/04/16 02:28:12;;;;;;;54.72;23.50;;;7.20;99.90;;;;;;4878227;29;20050;-82
2023/04/16 02:30:40;;;;;;;53.03;22.90;;;7.20;99.90;;;;;;4878759;29;20101;-82
2023/04/16 02:33:08;;;;;;;54.30;22.05;;;7.20;99.90;;;;;;4863721;29;20045;-82
2023/04/16 02:35:36;;;;;;;46.97;21.77;;;7.20;99.90;;;;;;4863246;29;20130;-81
2023/04/16 02:38:03;;;;;;;46.40;20.90;;;7.20;99.90;;;;;;4863337;29;20120;-82
2023/04/16 02:40:30;;;;;;;44.75;21.65;;;7.20;99.90;;;;;;4893547;29;20053;-82
2023/04/16 02:42:57;;;;;;;41.90;21.15;;;7.20;99.90;;;;;;4878631;29;20522;-82
2023/04/16 02:45:24;;;;;;;49.63;21.80;;;7.20;99.90;;;;;;4863038;29;20048;-82
2023/04/16 02:47:51;;;;;;;43.30;20.65;;;7.10;99.90;;;;;;4863314;29;20406;-82
2023/04/16 02:50:21;;;;;;;43.90;21.52;;;7.10;99.90;;;;;;4878346;29;20105;-82
2023/04/16 02:52:47;;;;;;;42.45;20.77;;;7.10;99.90;;;;;;4863020;29;20049;-82
2023/04/16 02:55:14;;;;;;;44.10;20.65;;;7.10;99.90;;;;;;4861915;29;20061;-82
2023/04/16 02:57:41;;;;;;;42.95;20.58;;;7.10;99.90;;;;;;4878304;29;20045;-82
2023/04/16 03:00:08;;;;;;;41.70;19.40;;;7.00;99.90;;;;;;4862798;29;20052;-82
2023/04/16 03:02:35;;;;;;;39.40;19.23;;;7.00;99.90;;;;;;4862732;29;20045;-82
2023/04/16 03:05:02;;;;;;;39.55;19.38;;;7.00;99.90;;;;;;4862873;29;20052;-82
2023/04/16 03:07:29;;;;;;;46.95;19.83;;;7.00;99.90;;;;;;4862671;29;20094;-82
2023/04/16 03:09:56;;;;;;;46.47;19.65;;;6.90;99.90;;;;;;4862637;29;20076;-82
2023/04/16 03:12:23;;;;;;;35.13;17.73;;;6.90;99.90;;;;;;4862442;29;20486;-82
2023/04/16 03:14:53;;;;;;;40.58;18.27;;;6.90;99.90;;;;;;4862484;29;20048;-82
2023/04/16 03:17:20;;;;;;;38.38;17.20;;;6.80;99.90;;;;;;4863033;29;20049;-81
2023/04/16 03:19:46;;;;;;;44.00;19.27;;;6.90;99.90;;;;;;4862626;29;20041;-82
2023/04/16 03:22:13;;;;;;;38.08;18.33;;;6.90;99.90;;;;;;4862398;29;20061;-82
2023/04/16 03:24:40;;;;;;;34.72;17.55;;;6.80;99.90;;;;;;4862358;29;20096;-82
2023/04/16 03:27:06;;;;;;;39.97;18.48;;;6.80;99.90;;;;;;4862393;29;20046;-82
2023/04/16 03:29:37;;;;;;;37.30;18.52;;;6.80;99.90;;;;;;4862575;29;20132;-82
2023/04/16 03:32:03;;;;;;;34.70;16.90;;;6.80;99.90;;;;;;4893070;29;20129;-82
2023/04/16 03:34:30;;;;;;;43.45;17.55;;;6.80;99.90;;;;;;4877092;29;20132;-82
2023/04/16 03:36:57;;;;;;;37.22;17.67;;;6.80;99.90;;;;;;4877951;29;20045;-82
2023/04/16 03:39:24;;;;;;;33.83;17.45;;;6.80;99.90;;;;;;4847014;29;20045;-82
2023/04/16 03:41:51;;;;;;;35.47;17.77;;;6.80;99.90;;;;;;4862374;29;20049;-82
2023/04/16 03:44:17;;;;;;;37.85;17.13;;;6.80;99.90;;;;;;4862361;29;20053;-82
2023/04/16 03:46:44;;;;;;;37.83;17.75;;;6.80;99.90;;;;;;4877344;29;20142;-82
2023/04/16 03:49:11;;;;;;;44.08;18.13;;;6.90;99.90;;;;;;4862295;29;20056;-82
2023/04/16 03:51:37;;;;;;;34.28;17.90;;;6.90;99.90;;;;;;4877092;29;20080;-82
2023/04/16 03:54:04;;;;;;;42.20;18.15;;;6.80;99.90;;;;;;4861852;29;20053;-82
2023/04/16 03:56:31;;;;;;;34.25;17.52;;;7.00;99.90;;;;;;4862281;29;20102;-81
2023/04/16 03:58:57;;;;;;;38.08;17.88;;;7.00;99.90;;;;;;4877556;29;20105;-81
2023/04/16 04:01:24;;;;;;;36.90;18.25;;;7.00;99.90;;;;;;4861966;29;20111;-82
2023/04/16 04:03:51;;;;;;;35.95;17.10;;;7.00;99.90;;;;;;4862194;29;20533;-82
2023/04/16 04:06:17;;;;;;;37.03;18.27;;;7.00;99.90;;;;;;4858899;29;20049;-82
2023/04/16 04:08:44;;;;;;;39.47;18.30;;;7.00;99.90;;;;;;4843700;29;20046;-82
2023/04/16 04:11:11;;;;;;;37.03;17.98;;;7.10;99.90;;;;;;4843738;29;20052;-82
2023/04/16 04:13:37;;;;;;;40.88;18.75;;;7.10;99.90;;;;;;4843454;29;20041;-82
2023/04/16 04:16:05;;;;;;;41.58;17.98;;;7.10;99.90;;;;;;4843460;29;20045;-82
2023/04/16 04:18:31;;;;;;;35.10;17.65;;;7.10;99.90;;;;;;4843504;29;20067;-82
2023/04/16 04:20:58;;;;;;;44.63;18.20;;;7.10;99.90;;;;;;4843846;29;20082;-82
2023/04/16 04:23:25;;;;;;;35.90;17.83;;;7.10;99.90;;;;;;4858487;29;20042;-82
2023/04/16 04:25:51;;;;;;;41.70;17.75;;;7.10;99.90;;;;;;4863100;29;20042;-82
2023/04/16 04:28:18;;;;;;;45.00;18.02;;;7.10;99.90;;;;;;4861403;29;20132;-82
2023/04/16 04:30:44;;;;;;;38.05;17.67;;;7.10;99.90;;;;;;4861405;29;20060;-82
2023/04/16 04:33:11;;;;;;;36.90;17.98;;;7.10;99.90;;;;;;4861362;29;20132;-82
2023/04/16 04:35:38;;;;;;;36.47;17.83;;;7.10;99.90;;;;;;4861348;29;20041;-82
2023/04/16 04:38:05;;;;;;;34.47;18.23;;;7.10;99.90;;;;;;4861214;29;20048;-81
2023/04/16 04:40:31;;;;;;;35.45;17.40;;;7.10;99.90;;;;;;4876660;29;20045;-82
2023/04/16 04:42:58;;;;;;;35.38;18.15;;;7.10;99.90;;;;;;4861935;29;20451;-82
2023/04/16 04:45:25;;;;;;;33.75;17.63;;;7.10;99.90;;;;;;4861537;29;20132;-82
2023/04/16 04:47:52;;;;;;;34.22;18.80;;;7.10;99.90;;;;;;4861398;29;20037;-82
2023/04/16 04:50:19;;;;;;;30.65;17.33;;;7.10;99.90;;;;;;4876968;29;20596;-81
2023/04/16 04:52:46;;;;;;;29.83;16.85;;;7.10;99.90;;;;;;4861692;29;20060;-82
2023/04/16 04:55:14;;;;;;;33.95;17.45;;;7.00;99.90;;;;;;4876550;29;20062;-82
2023/04/16 04:57:41;;;;;;;34.05;16.83;;;7.10;99.90;;;;;;4876416;29;20080;-82
2023/04/16 05:00:08;;;;;;;33.28;17.88;;;7.00;99.90;;;;;;4861957;29;20499;-82
2023/04/16 05:02:38;;;;;;;36.53;17.38;;;7.00;99.90;;;;;;4847983;29;20049;-82
2023/04/16 05:05:05;;;;;;;36.95;18.42;;;7.00;99.90;;;;;;4861373;29;20049;-82
2023/04/16 05:07:32;;;;;;;36.22;17.25;;;7.00;99.90;;;;;;4875951;29;20121;-82
2023/04/16 05:09:59;;;;;;;32.35;17.55;;;7.00;99.90;;;;;;4861538;29;20045;-82
2023/04/16 05:12:26;;;;;;;27.92;16.85;;;7.00;99.90;;;;;;4876550;29;20057;-82
2023/04/16 05:14:52;;;;;;;27.52;17.27;;;7.00;99.90;;;;;;4861008;29;20056;-82
2023/04/16 05:17:19;;;;;;;31.65;17.98;;;7.00;99.90;;;;;;4861105;29;20562;-82
2023/04/16 05:19:46;;;;;;;31.83;18.02;;;7.10;99.90;;;;;;4879620;29;20101;-82
2023/04/16 05:22:12;;;;;;;38.28;17.60;;;7.10;99.90;;;;;;4864235;29;20045;-82
2023/04/16 05:24:39;;;;;;;32.83;17.10;;;7.10;99.90;;;;;;4864413;29;20053;-82
2023/04/16 05:27:06;;;;;;;30.90;17.13;;;7.10;99.90;;;;;;4864411;29;20041;-82
2023/04/16 05:29:33;;;;;;;32.22;17.17;;;7.10;99.90;;;;;;4863919;29;20106;-82
2023/04/16 05:32:00;;;;;;;35.28;17.80;;;7.10;99.90;;;;;;4864077;29;20045;-82
2023/04/16 05:34:27;;;;;;;32.38;16.98;;;7.20;99.90;;;;;;4864347;29;20050;-82
2023/04/16 05:36:54;;;;;;;30.10;17.65;;;7.20;99.90;;;;;;4863942;29;20045;-82
2023/04/16 05:39:20;;;;;;;31.48;18.38;;;7.20;99.90;;;;;;4864062;29;20046;-82
2023/04/16 05:41:47;;;;;;;30.40;17.83;;;7.20;99.90;;;;;;4863928;29;20045;-82
2023/04/16 05:44:17;;;;;;;31.50;18.05;;;7.30;99.90;;;;;;4864127;29;20049;-82
2023/04/16 05:46:43;;;;;;;33.13;18.55;;;7.30;99.90;;;;;;4888058;29;20052;-82
2023/04/16 05:49:10;;;;;;;33.00;16.85;;;7.30;99.90;;;;;;4877398;29;20421;-82
2023/04/16 05:51:43;;;;;;;25.77;16.27;;;7.40;99.90;;;;;;4867955;29;20076;-82
2023/04/16 05:54:10;;;;;;;31.75;17.98;;;7.50;99.90;;;;;;4863250;29;20061;-82
2023/04/16 05:56:36;;;;;;;31.92;18.08;;;7.50;99.90;;;;;;4862729;29;20431;-81
2023/04/16 05:59:03;;;;;;;29.50;17.17;;;7.50;99.90;;;;;;4878214;29;20136;-82
2023/04/16 06:01:31;;;;;;;28.88;17.50;;;7.60;99.90;;;;;;4859869;29;20500;-82
2023/04/16 06:03:57;;;;;;;31.45;16.55;;;7.60;99.90;;;;;;4859848;29;20049;-82
2023/04/16 06:06:26;;;;;;;26.08;16.30;;;7.60;99.90;;;;;;4874695;29;20038;-82
2023/04/16 06:08:52;;;;;;;30.90;17.63;;;7.70;99.90;;;;;;4859630;29;20076;-82
2023/04/16 06:11:19;;;;;;;29.48;16.60;;;7.60;99.90;;;;;;4847507;29;20817;-82
2023/04/16 06:13:46;;;;;;;28.42;16.98;;;7.70;99.90;;;;;;4862355;29;20042;-82
2023/04/16 06:16:13;;;;;;;29.40;15.98;;;7.70;99.90;;;;;;4862699;29;20128;-82
2023/04/16 06:18:39;;;;;;;29.25;15.93;;;7.70;99.90;;;;;;4862382;29;20491;-81
2023/04/16 06:21:06;;;;;;;33.42;16.48;;;7.80;99.90;;;;;;4862538;29;20499;-82
2023/04/16 06:23:33;;;;;;;30.33;15.63;;;7.80;99.90;;;;;;4877541;29;20048;-82
2023/04/16 06:25:59;;;;;;;31.58;16.23;;;7.90;99.90;;;;;;4847265;29;20092;-82
2023/04/16 06:28:26;;;;;;;29.33;16.23;;;7.90;99.90;;;;;;4862269;29;20045;-83
2023/04/16 06:30:53;;;;;;;32.35;15.88;;;7.90;99.90;;;;;;4846130;29;20410;-82
2023/04/16 06:33:20;;;;;;;28.90;16.27;;;8.00;99.90;;;;;;4847167;29;20050;-82
2023/04/16 06:35:46;;;;;;;26.17;14.88;;;8.00;99.90;;;;;;4847221;29;20043;-82
2023/04/16 06:38:14;;;;;;;27.45;15.18;;;8.00;99.90;;;;;;4862611;29;20227;-82
2023/04/16 06:40:40;;;;;;;32.03;16.00;;;8.00;99.90;;;;;;4877508;29;20159;-82
2023/04/16 06:43:07;;;;;;;32.70;15.32;;;8.00;99.90;;;;;;4859041;29;20041;-82
2023/04/16 06:45:34;;;;;;;31.58;16.15;;;8.00;99.90;;;;;;4844138;29;20045;-82
2023/04/16 06:48:02;;;;;;;27.40;14.60;;;8.00;99.90;;;;;;4843987;29;20045;-82
2023/04/16 06:50:28;;;;;;;26.98;14.98;;;8.00;99.90;;;;;;4844576;29;20061;-82
2023/04/16 06:52:55;;;;;;;33.20;16.30;;;8.00;99.90;;;;;;4846128;29;20049;-82
2023/04/16 06:55:22;;;;;;;32.10;16.02;;;8.00;99.90;;;;;;4825474;29;1119958;-82
2023/04/16 06:57:49;;;;;;;29.48;15.57;;;8.10;99.90;;;;;;4847694;29;20415;-82
2023/04/16 07:00:16;;;;;;;31.02;15.48;;;8.00;99.90;;;;;;4863633;29;20468;-82
2023/04/16 07:02:42;;;;;;;28.08;16.15;;;8.10;99.90;;;;;;4862778;29;20041;-82
2023/04/16 07:05:09;;;;;;;28.52;15.85;;;8.10;99.90;;;;;;4862515;29;20056;-82
2023/04/16 07:07:36;;;;;;;34.58;16.05;;;8.10;99.90;;;;;;4847726;29;20383;-79
2023/04/16 07:10:04;;;;;;;27.58;15.23;;;8.20;99.90;;;;;;4862670;29;20049;-81
2023/04/16 07:12:31;;;;;;;36.50;15.07;;;8.20;99.90;;;;;;4863422;29;20045;-81
2023/04/16 07:14:58;;;;;;;34.60;16.45;;;8.30;99.90;;;;;;4848649;29;20053;-85
2023/04/16 07:17:25;;;;;;;30.77;15.85;;;8.30;99.90;;;;;;4878390;29;20077;-86
2023/04/16 07:19:52;;;;;;;34.35;15.93;;;8.30;99.90;;;;;;4852493;29;20491;-86
2023/04/16 07:22:19;;;;;;;31.52;14.88;;;8.40;99.90;;;;;;4844572;29;20082;-86
2023/04/16 07:24:46;;;;;;;31.55;15.73;;;8.40;99.90;;;;;;4849326;29;20049;-86
2023/04/16 07:27:13;;;;;;;32.70;15.82;;;8.40;99.90;;;;;;4859228;29;20185;-86
2023/04/16 07:29:40;;;;;;;31.83;15.57;;;8.40;99.90;;;;;;4882406;29;20053;-86
2023/04/16 07:32:07;;;;;;;30.88;14.48;;;8.40;99.90;;;;;;4873934;29;20486;-86
2023/04/16 07:34:33;;;;;;;28.42;14.95;;;8.40;99.90;;;;;;4881021;29;20098;-86
2023/04/16 07:37:00;;;;;;;32.88;15.68;;;8.50;99.90;;;;;;4832297;29;20121;-86
2023/04/16 07:39:26;;;;;;;32.30;15.18;;;8.50;99.90;;;;;;4844273;29;20046;-86
2023/04/16 07:41:54;;;;;;;35.50;15.98;;;8.50;99.90;;;;;;4843990;29;20074;-86
2023/04/16 07:44:20;;;;;;;31.30;14.95;;;8.70;99.90;;;;;;4860113;29;20056;-86
2023/04/16 07:46:47;;;;;;;30.80;15.50;;;8.70;99.90;;;;;;4847977;29;20054;-86
2023/04/16 07:49:14;;;;;;;32.28;15.48;;;8.80;99.90;;;;;;4862676;29;20046;-86
2023/04/16 07:51:41;;;;;;;29.92;14.93;;;8.90;99.90;;;;;;4862980;29;20080;-86
2023/04/16 07:54:08;;;;;;;30.17;16.02;;;9.00;99.90;;;;;;4862046;29;20080;-86
2023/04/16 07:56:35;;;;;;;30.48;14.65;;;9.10;99.90;;;;;;4862210;29;20066;-86
2023/04/16 07:59:01;;;;;;;31.75;15.55;;;9.20;99.90;;;;;;4862401;29;20503;-86
2023/04/16 08:01:28;;;;;;;25.38;14.73;;;9.30;99.90;;;;;;4862595;29;20129;-86
2023/04/16 08:03:55;;;;;;;33.42;15.77;;;9.40;99.90;;;;;;4862395;29;20098;-86
2023/04/16 08:06:23;;;;;;;45.05;14.27;;;9.50;99.90;;;;;;4862407;29;20048;-85
2023/04/16 08:08:50;;;;;;;30.38;15.00;;;9.60;99.90;;;;;;4847578;29;20387;-86
2023/04/16 08:11:17;;;;;;;28.58;14.15;;;9.70;99.90;;;;;;4862292;29;20038;-86
2023/04/16 08:13:43;;;;;;;35.45;14.30;;;9.70;99.90;;;;;;4877587;29;20046;-86
2023/04/16 08:16:10;;;;;;;31.40;14.32;;;9.80;99.90;;;;;;4861890;29;20057;-86
2023/04/16 08:18:37;;;;;;;33.75;14.63;;;9.90;99.90;;;;;;4847307;29;20578;-86
2023/04/16 08:21:04;;;;;;;27.30;14.48;;;10.00;99.90;;;;;;4846723;29;20045;-86
2023/04/16 08:23:31;;;;;;;30.50;14.13;;;10.10;99.90;;;;;;4862179;29;20045;-86
2023/04/16 08:25:58;;;;;;;31.55;13.82;;;10.20;99.90;;;;;;4847112;29;20380;-85
2023/04/16 08:28:25;;;;;;;25.55;13.55;;;10.20;99.90;;;;;;4861848;29;20056;-85
2023/04/16 08:30:51;;;;;;;25.60;13.25;;;10.30;99.90;;;;;;4862086;29;20041;-85
2023/04/16 08:33:18;;;;;;;27.40;13.63;;;10.40;99.90;;;;;;4846746;29;20053;-86
2023/04/16 08:35:45;;;;;;;24.80;13.50;;;10.50;99.90;;;;;;4846703;29;20114;-86
2023/04/16 08:38:12;;;;;;;26.23;12.73;;;10.50;99.90;;;;;;4846514;29;20405;-85
2023/04/16 08:40:41;;;;;;;24.40;12.65;;;10.60;99.90;;;;;;4862252;29;20084;-86
2023/04/16 08:43:14;;;;;;;24.45;13.80;;;10.70;99.90;;;;;;4861892;29;20136;-86
2023/04/16 08:45:43;;;;;;;25.23;13.98;;;10.70;99.90;;;;;;4876857;29;20510;-86
2023/04/16 08:48:11;;;;;;;25.55;13.65;;;10.90;99.90;;;;;;4892041;29;20050;-85
2023/04/16 08:50:39;;;;;;;23.23;13.60;;;11.00;99.90;;;;;;4861793;29;20076;-85
2023/04/16 08:53:09;;;;;;;24.77;13.18;;;11.10;99.90;;;;;;4863564;29;20479;-85
2023/04/16 08:55:39;;;;;;;27.50;13.77;;;11.20;99.90;;;;;;4880746;29;20530;-86
2023/04/16 08:58:18;;;;;;;25.52;12.73;;;11.30;99.90;;;;;;4895715;29;20491;-85
2023/04/16 09:00:46;;;;;;;27.52;14.00;;;11.40;99.90;;;;;;4880712;29;20077;-85
2023/04/16 09:03:13;;;;;;;24.33;13.27;;;11.60;99.90;;;;;;4865481;29;20052;-86
2023/04/16 09:05:41;;;;;;;25.10;13.27;;;11.70;99.90;;;;;;4865557;29;20049;-85
2023/04/16 09:08:08;;;;;;;23.27;13.20;;;11.90;99.90;;;;;;4865436;29;20050;-86
2023/04/16 09:10:35;;;;;;;27.60;12.68;;;11.90;99.90;;;;;;4865349;29;20064;-86
2023/04/16 09:13:02;;;;;;;23.10;12.50;;;11.90;99.90;;;;;;4850590;29;20041;-86
2023/04/16 09:15:29;;;;;;;25.88;12.65;;;11.80;99.90;;;;;;4864889;29;20117;-86
2023/04/16 09:17:56;;;;;;;25.08;12.52;;;11.80;99.90;;;;;;4880535;29;20046;-86
2023/04/16 09:20:23;;;;;;;22.50;12.63;;;11.80;99.90;;;;;;4861359;29;20519;-85
2023/04/16 09:22:53;;;;;;;21.02;12.25;;;11.90;99.90;;;;;;4862049;29;20491;-86
2023/04/16 09:25:21;;;;;;;19.50;11.90;;;11.80;99.90;;;;;;4861890;29;20737;-86
2023/04/16 09:27:51;;;;;;;22.38;12.25;;;11.90;99.90;;;;;;4862365;29;20072;-86
2023/04/16 09:30:25;;;;;;;22.13;11.52;;;11.90;99.90;;;;;;4846957;29;20093;-86
2023/04/16 09:33:16;;;;;;;27.48;13.23;;;12.00;99.90;;;;;;4846966;29;20069;-86
2023/04/16 09:35:48;;;;;;;21.67;11.75;;;12.00;99.90;;;;;;4892441;29;20081;-86
2023/04/16 09:38:18;;;;;;;20.95;12.10;;;12.10;99.90;;;;;;4876849;29;20053;-86
2023/04/16 09:40:46;;;;;;;21.65;11.48;;;12.00;99.90;;;;;;4877634;29;20503;-86
2023/04/16 09:43:15;;;;;;;21.15;12.70;;;12.10;99.90;;;;;;4880099;29;20037;-86
2023/04/16 09:45:53;;;;;;;21.20;12.20;;;12.20;99.90;;;;;;4865213;29;20490;-86
2023/04/16 09:48:31;;;;;;;20.67;12.75;;;12.30;99.90;;;;;;4865383;29;20167;-86
2023/04/16 09:50:59;;;;;;;20.67;12.02;;;12.30;99.90;;;;;;4865063;29;20140;-85
2023/04/16 09:53:30;;;;;;;18.02;11.90;;;12.40;99.90;;;;;;4864622;29;20056;-86
2023/04/16 09:55:58;;;;;;;18.58;10.82;;;12.40;99.90;;;;;;4879962;29;20110;-86
2023/04/16 09:58:28;;;;;;;21.75;12.38;;;12.40;99.90;;;;;;4879395;29;20041;-85
2023/04/16 10:01:16;;;;;;;18.58;11.75;;;12.50;99.90;;;;;;4865049;29;20053;-86
2023/04/16 10:03:49;;;;;;;20.88;11.60;;;12.60;99.90;;;;;;4884621;29;20041;-85
2023/04/16 10:06:18;;;;;;;21.75;10.70;;;12.60;99.90;;;;;;4879561;29;20415;-87
2023/04/16 10:08:50;;;;;;;22.95;11.52;;;12.70;99.90;;;;;;4880181;29;20131;-86
2023/04/16 10:11:20;;;;;;;19.83;11.30;;;12.70;99.90;;;;;;4865317;29;20049;-86
2023/04/16 10:13:47;;;;;;;23.10;12.02;;;12.70;99.90;;;;;;4864520;29;20102;-85
2023/04/16 10:16:16;;;;;;;20.25;11.40;;;12.80;99.90;;;;;;4861156;29;20426;-86
2023/04/16 10:18:47;;;;;;;20.08;11.43;;;12.80;99.90;;;;;;4862325;29;20161;-85
2023/04/16 10:21:15;;;;;;;19.65;11.07;;;12.80;99.90;;;;;;4876730;29;20186;-85
2023/04/16 10:23:42;;;;;;;18.77;11.88;;;12.90;99.90;;;;;;4846411;29;20046;-85
2023/04/16 10:26:09;;;;;;;16.98;11.80;;;13.00;99.90;;;;;;4864262;29;20052;-86
2023/04/16 10:28:36;;;;;;;18.52;11.18;;;13.10;99.90;;;;;;4879440;29;20045;-86
2023/04/16 10:31:06;;;;;;;23.40;11.90;;;13.10;99.90;;;;;;4863639;29;20098;-85
2023/04/16 10:33:35;;;;;;;20.23;11.88;;;13.30;99.90;;;;;;4878938;29;20503;-86
2023/04/16 10:36:13;;;;;;;19.83;11.95;;;13.30;99.90;;;;;;4857320;29;20128;-86
2023/04/16 10:38:45;;;;;;;19.33;11.73;;;13.30;99.90;;;;;;4860871;29;20038;-85
2023/04/16 10:41:11;;;;;;;21.55;12.27;;;13.30;99.90;;;;;;4872504;29;20383;-86
2023/04/16 10:43:41;;;;;;;21.73;12.18;;;13.30;99.90;;;;;;4878846;29;20045;-86
2023/04/16 10:46:38;;;;;;;21.83;11.63;;;13.40;99.90;;;;;;4878596;29;20056;-85
2023/04/16 10:49:34;;;;;;;18.95;11.85;;;13.40;99.90;;;;;;4874762;29;20507;-86
2023/04/16 10:52:10;;;;;;;18.90;11.30;;;13.50;99.90;;;;;;4873227;29;20546;-86
2023/04/16 10:54:38;;;;;;;19.33;10.82;;;13.50;99.90;;;;;;4859722;29;20715;-86
2023/04/16 10:57:07;;;;;;;18.58;11.25;;;13.60;99.90;;;;;;4850923;29;20093;-86
2023/04/16 10:59:36;;;;;;;21.05;11.48;;;13.60;99.90;;;;;;4878234;29;20459;-85
2023/04/16 11:02:08;;;;;;;16.60;11.20;;;13.70;99.90;;;;;;4878163;29;20052;-86
2023/04/16 11:04:37;;;;;;;20.42;11.65;;;13.70;99.90;;;;;;4878454;29;20045;-85
2023/04/16 11:07:19;;;;;;;19.75;12.02;;;13.80;99.90;;;;;;4878107;29;20414;-85
2023/04/16 11:09:55;;;;;;;18.90;11.23;;;13.80;99.90;;;;;;4863038;29;20048;-86
2023/04/16 11:12:40;;;;;;;16.95;10.82;;;13.90;99.90;;;;;;4878069;29;20105;-85
2023/04/16 11:15:12;;;;;;;19.63;11.27;;;13.90;99.90;;;;;;4877666;29;20133;-85
2023/04/16 11:17:47;;;;;;;20.17;11.35;;;14.00;99.90;;;;;;4862524;29;20081;-86
2023/04/16 11:20:22;;;;;;;19.73;11.18;;;14.00;99.90;;;;;;4878018;29;20048;-85
2023/04/16 11:22:54;;;;;;;17.17;10.73;;;14.10;99.90;;;;;;4878123;29;20049;-86
2023/04/16 11:25:28;;;;;;;18.98;11.20;;;14.00;99.90;;;;;;4893207;29;20061;-86
2023/04/16 11:27:57;;;;;;;17.55;10.82;;;14.10;99.90;;;;;;4880259;29;20083;-85
2023/04/16 11:30:35;;;;;;;17.33;10.75;;;14.10;99.90;;;;;;4863298;29;20048;-85
2023/04/16 11:33:10;;;;;;;20.92;11.27;;;14.00;99.90;;;;;;4877808;29;20081;-85
2023/04/16 11:35:38;;;;;;;20.15;11.27;;;14.00;99.90;;;;;;4877551;29;20136;-86
2023/04/16 11:38:06;;;;;;;18.17;11.68;;;14.00;99.90;;;;;;4878156;29;20456;-85
2023/04/16 11:40:33;;;;;;;20.20;11.30;;;14.00;99.90;;;;;;4877464;29;20041;-86
2023/04/16 11:43:13;;;;;;;20.45;10.60;;;14.10;99.90;;;;;;4877794;29;20084;-86
2023/04/16 11:45:55;;;;;;;18.35;11.80;;;14.10;99.90;;;;;;4877562;29;20538;-86
2023/04/16 11:48:22;;;;;;;19.58;11.18;;;14.00;99.90;;;;;;4864238;29;20102;-86
2023/04/16 11:50:58;;;;;;;17.42;10.52;;;14.10;99.90;;;;;;4862367;29;20041;-86
2023/04/16 11:53:25;;;;;;;22.52;11.30;;;14.10;99.90;;;;;;4862264;29;20055;-85
2023/04/16 11:55:52;;;;;;;22.13;11.68;;;14.10;99.90;;;;;;4862524;29;20140;-86
2023/04/16 11:58:21;;;;;;;20.45;11.60;;;14.10;99.90;;;;;;4862609;29;20129;-86
2023/04/16 12:00:48;;;;;;;21.75;10.85;;;14.10;99.90;;;;;;4862794;29;20041;-86
2023/04/16 12:03:15;;;;;;;19.83;11.80;;;14.00;99.90;;;;;;4862458;29;20487;-85
2023/04/16 12:05:42;;;;;;;20.23;11.32;;;13.90;99.90;;;;;;4862334;29;20049;-86
2023/04/16 12:08:11;;;;;;;24.33;11.98;;;14.00;99.90;;;;;;4862462;29;20871;-86
2023/04/16 12:10:53;;;;;;;24.33;11.90;;;13.90;99.90;;;;;;4877195;29;20052;-86
2023/04/16 12:13:20;;;;;;;20.35;12.40;;;13.80;99.90;;;;;;4892616;29;20081;-85
2023/04/16 12:15:47;;;;;;;25.67;12.75;;;13.80;99.90;;;;;;4861851;29;20088;-85
2023/04/16 12:18:15;;;;;;;20.13;12.90;;;13.70;99.90;;;;;;4877471;29;20081;-85
2023/04/16 12:20:43;;;;;;;23.52;13.35;;;13.70;99.90;;;;;;4877211;29;20041;-85
2023/04/16 12:23:22;;;;;;;23.88;13.40;;;13.70;99.90;;;;;;4862354;29;20802;-85
2023/04/16 12:25:48;;;;;;;20.48;13.25;;;13.70;99.90;;;;;;4862881;29;20053;-86
2023/04/16 12:28:37;;;;;;;18.00;11.82;;;13.70;99.90;;;;;;4865162;29;20042;-85
2023/04/16 12:31:04;;;;;;;21.92;12.60;;;13.70;99.90;;;;;;4896336;29;20429;-85
2023/04/16 12:33:31;;;;;;;24.83;13.48;;;13.80;99.90;;;;;;4880796;29;20061;-85
2023/04/16 12:35:58;;;;;;;27.10;12.70;;;13.70;99.90;;;;;;4862363;29;20503;-86
2023/04/16 12:38:25;;;;;;;22.35;13.27;;;13.70;99.90;;;;;;4862283;29;20046;-85